sensor_id;sensor_type;location;lat;lon;timestamp;pressure;altitude;pressure_sealevel;temperature;humidity
12471;BME280;36499;46.484;13.832;2023-07-31T00:01:21;93171.09;;;17.57;94.26
12471;BME280;36499;46.484;13.832;2023-07-31T00:03:49;93172.31;;;17.49;94.57
12471;BME280;36499;46.484;13.832;2023-07-31T00:06:16;93179.09;;;17.40;95.01
12471;BME280;36499;46.484;13.832;2023-07-31T00:08:43;93173.06;;;17.45;94.83
12471;BME280;36499;46.484;13.832;2023-07-31T00:11:10;93173.88;;;17.45;94.75
12471;BME280;36499;46.484;13.832;2023-07-31T00:13:37;93177.00;;;17.42;94.41
12471;BME280;36499;46.484;13.832;2023-07-31T00:16:05;93173.59;;;17.47;94.41
12471;BME280;36499;46.484;13.832;2023-07-31T00:18:32;93175.75;;;17.50;94.67
12471;BME280;36499;46.484;13.832;2023-07-31T00:20:59;93181.25;;;17.48;93.99
12471;BME280;36499;46.484;13.832;2023-07-31T00:23:26;93175.75;;;17.55;94.39
12471;BME280;36499;46.484;13.832;2023-07-31T00:25:53;93171.00;;;17.52;94.58
12471;BME280;36499;46.484;13.832;2023-07-31T00:28:20;93167.84;;;17.55;94.60
12471;BME280;36499;46.484;13.832;2023-07-31T00:30:47;93160.53;;;17.57;94.67
12471;BME280;36499;46.484;13.832;2023-07-31T00:33:16;93164.75;;;17.58;94.55
12471;BME280;36499;46.484;13.832;2023-07-31T00:35:43;93158.91;;;17.56;94.33
12471;BME280;36499;46.484;13.832;2023-07-31T00:38:10;93164.66;;;17.48;94.67
12471;BME280;36499;46.484;13.832;2023-07-31T00:40:37;93164.56;;;17.38;94.48
12471;BME280;36499;46.484;13.832;2023-07-31T00:43:04;93165.09;;;17.35;94.87
12471;BME280;36499;46.484;13.832;2023-07-31T00:45:32;93166.06;;;17.28;94.63
12471;BME280;36499;46.484;13.832;2023-07-31T00:47:59;93170.47;;;17.18;94.85
12471;BME280;36499;46.484;13.832;2023-07-31T00:50:28;93166.97;;;17.12;94.88
12471;BME280;36499;46.484;13.832;2023-07-31T00:52:56;93163.59;;;17.17;95.36
12471;BME280;36499;46.484;13.832;2023-07-31T00:55:23;93156.56;;;17.22;94.78
12471;BME280;36499;46.484;13.832;2023-07-31T00:57:52;93159.19;;;17.22;94.42
12471;BME280;36499;46.484;13.832;2023-07-31T01:00:21;93164.69;;;17.21;94.22
12471;BME280;36499;46.484;13.832;2023-07-31T01:02:49;93167.53;;;17.14;94.59
12471;BME280;36499;46.484;13.832;2023-07-31T01:05:22;93159.06;;;17.07;94.92
12471;BME280;36499;46.484;13.832;2023-07-31T01:08:00;93165.13;;;17.08;95.41
12471;BME280;36499;46.484;13.832;2023-07-31T01:10:46;93169.19;;;16.94;96.23
12471;BME280;36499;46.484;13.832;2023-07-31T01:13:16;93172.09;;;16.97;96.36
12471;BME280;36499;46.484;13.832;2023-07-31T01:15:44;93180.56;;;16.99;95.75
12471;BME280;36499;46.484;13.832;2023-07-31T01:18:11;93171.63;;;17.00;95.56
12471;BME280;36499;46.484;13.832;2023-07-31T01:20:42;93179.84;;;17.04;95.25
12471;BME280;36499;46.484;13.832;2023-07-31T01:23:36;93178.97;;;16.98;95.15
12471;BME280;36499;46.484;13.832;2023-07-31T01:26:19;93180.50;;;16.94;95.55
12471;BME280;36499;46.484;13.832;2023-07-31T01:28:56;93183.44;;;16.98;95.78
12471;BME280;36499;46.484;13.832;2023-07-31T01:31:29;93181.59;;;16.98;95.88
12471;BME280;36499;46.484;13.832;2023-07-31T01:34:00;93183.72;;;16.96;95.75
12471;BME280;36499;46.484;13.832;2023-07-31T01:36:28;93186.88;;;16.98;95.58
12471;BME280;36499;46.484;13.832;2023-07-31T01:38:58;93185.34;;;17.02;95.73
12471;BME280;36499;46.484;13.832;2023-07-31T01:41:27;93192.19;;;17.03;95.68
12471;BME280;36499;46.484;13.832;2023-07-31T01:43:54;93188.78;;;17.03;95.49
12471;BME280;36499;46.484;13.832;2023-07-31T01:46:21;93186.38;;;17.01;95.49
12471;BME280;36499;46.484;13.832;2023-07-31T01:48:48;93193.53;;;17.06;95.43
12471;BME280;36499;46.484;13.832;2023-07-31T01:51:15;93192.56;;;17.12;95.38
12471;BME280;36499;46.484;13.832;2023-07-31T01:53:42;93193.63;;;17.16;95.16
12471;BME280;36499;46.484;13.832;2023-07-31T01:56:09;93198.13;;;17.15;94.41
12471;BME280;36499;46.484;13.832;2023-07-31T01:58:38;93198.59;;;17.12;94.64
12471;BME280;36499;46.484;13.832;2023-07-31T02:01:05;93197.81;;;17.12;94.61
12471;BME280;36499;46.484;13.832;2023-07-31T02:03:31;93196.03;;;17.17;94.44
12471;BME280;36499;46.484;13.832;2023-07-31T02:05:58;93195.28;;;17.22;94.25
12471;BME280;36499;46.484;13.832;2023-07-31T02:08:25;93190.81;;;17.22;93.89
12471;BME280;36499;46.484;13.832;2023-07-31T02:10:52;93193.69;;;17.21;93.79
12471;BME280;36499;46.484;13.832;2023-07-31T02:13:19;93198.16;;;17.20;93.62
12471;BME280;36499;46.484;13.832;2023-07-31T02:15:48;93196.88;;;17.23;92.85
12471;BME280;36499;46.484;13.832;2023-07-31T02:18:16;93200.25;;;17.18;92.32
12471;BME280;36499;46.484;13.832;2023-07-31T02:20:43;93202.09;;;17.18;92.44
12471;BME280;36499;46.484;13.832;2023-07-31T02:23:12;93202.88;;;17.18;92.83
12471;BME280;36499;46.484;13.832;2023-07-31T02:25:39;93195.22;;;17.17;92.75
12471;BME280;36499;46.484;13.832;2023-07-31T02:28:06;93199.44;;;17.18;92.92
12471;BME280;36499;46.484;13.832;2023-07-31T02:30:33;93184.69;;;17.17;92.88
12471;BME280;36499;46.484;13.832;2023-07-31T02:33:01;93193.63;;;17.16;92.99
12471;BME280;36499;46.484;13.832;2023-07-31T02:35:27;93180.72;;;17.14;92.73
12471;BME280;36499;46.484;13.832;2023-07-31T02:37:54;93193.03;;;17.09;92.22
12471;BME280;36499;46.484;13.832;2023-07-31T02:40:21;93190.16;;;17.10;92.71
12471;BME280;36499;46.484;13.832;2023-07-31T02:42:49;93187.53;;;17.10;92.75
12471;BME280;36499;46.484;13.832;2023-07-31T02:45:16;93193.03;;;17.09;92.65
12471;BME280;36499;46.484;13.832;2023-07-31T02:47:43;93188.81;;;17.08;92.23
12471;BME280;36499;46.484;13.832;2023-07-31T02:50:11;93184.81;;;17.00;91.71
12471;BME280;36499;46.484;13.832;2023-07-31T02:52:38;93193.44;;;16.96;91.71
12471;BME280;36499;46.484;13.832;2023-07-31T02:55:06;93188.91;;;16.91;91.76
12471;BME280;36499;46.484;13.832;2023-07-31T02:57:34;93188.91;;;16.91;91.95
12471;BME280;36499;46.484;13.832;2023-07-31T03:00:01;93183.06;;;16.84;91.37
12471;BME280;36499;46.484;13.832;2023-07-31T03:02:31;93191.75;;;16.85;91.84
12471;BME280;36499;46.484;13.832;2023-07-31T03:04:58;93189.88;;;16.80;91.48
12471;BME280;36499;46.484;13.832;2023-07-31T03:07:26;93188.81;;;16.81;91.42
12471;BME280;36499;46.484;13.832;2023-07-31T03:09:54;93184.09;;;16.83;91.72
12471;BME280;36499;46.484;13.832;2023-07-31T03:12:21;93192.50;;;16.80;92.05
12471;BME280;36499;46.484;13.832;2023-07-31T03:14:48;93187.16;;;16.75;91.85
12471;BME280;36499;46.484;13.832;2023-07-31T03:17:15;93186.75;;;16.61;93.14
12471;BME280;36499;46.484;13.832;2023-07-31T03:19:42;93174.44;;;16.67;93.46
12471;BME280;36499;46.484;13.832;2023-07-31T03:22:09;93182.31;;;16.62;93.90
12471;BME280;36499;46.484;13.832;2023-07-31T03:24:38;93177.97;;;16.56;92.41
12471;BME280;36499;46.484;13.832;2023-07-31T03:27:06;93182.13;;;16.52;92.28
12471;BME280;36499;46.484;13.832;2023-07-31T03:29:33;93173.72;;;16.50;92.27
12471;BME280;36499;46.484;13.832;2023-07-31T03:32:00;93179.94;;;16.44;92.82
12471;BME280;36499;46.484;13.832;2023-07-31T03:34:27;93177.25;;;16.39;92.36
12471;BME280;36499;46.484;13.832;2023-07-31T03:36:54;93187.78;;;16.39;92.96
12471;BME280;36499;46.484;13.832;2023-07-31T03:39:21;93187.47;;;16.35;93.57
12471;BME280;36499;46.484;13.832;2023-07-31T03:41:49;93194.56;;;16.35;93.39
12471;BME280;36499;46.484;13.832;2023-07-31T03:44:16;93189.56;;;16.33;93.14
12471;BME280;36499;46.484;13.832;2023-07-31T03:46:43;93194.50;;;16.29;93.73
12471;BME280;36499;46.484;13.832;2023-07-31T03:49:10;93202.41;;;16.29;93.90
12471;BME280;36499;46.484;13.832;2023-07-31T03:51:37;93194.47;;;16.24;92.60
12471;BME280;36499;46.484;13.832;2023-07-31T03:54:04;93202.50;;;16.18;91.27
12471;BME280;36499;46.484;13.832;2023-07-31T03:56:33;93197.44;;;16.11;91.67
12471;BME280;36499;46.484;13.832;2023-07-31T03:59:01;93200.88;;;16.12;91.95
12471;BME280;36499;46.484;13.832;2023-07-31T04:01:28;93207.97;;;16.11;92.39
12471;BME280;36499;46.484;13.832;2023-07-31T04:03:56;93206.31;;;16.05;94.00
12471;BME280;36499;46.484;13.832;2023-07-31T04:06:23;93202.00;;;15.99;94.42
12471;BME280;36499;46.484;13.832;2023-07-31T04:08:50;93202.09;;;16.04;94.38
12471;BME280;36499;46.484;13.832;2023-07-31T04:11:17;93202.09;;;16.04;94.57
12471;BME280;36499;46.484;13.832;2023-07-31T04:13:44;93202.88;;;16.05;95.08
12471;BME280;36499;46.484;13.832;2023-07-31T04:16:12;93205.31;;;16.11;94.71
12471;BME280;36499;46.484;13.832;2023-07-31T04:18:39;93198.78;;;16.14;94.74
12471;BME280;36499;46.484;13.832;2023-07-31T04:21:06;93203.00;;;16.15;94.68
12471;BME280;36499;46.484;13.832;2023-07-31T04:23:33;93200.28;;;16.10;94.66
12471;BME280;36499;46.484;13.832;2023-07-31T04:26:00;93201.09;;;16.10;94.89
12471;BME280;36499;46.484;13.832;2023-07-31T04:28:27;93202.22;;;16.14;95.21
12471;BME280;36499;46.484;13.832;2023-07-31T04:30:57;93203.81;;;16.15;93.33
12471;BME280;36499;46.484;13.832;2023-07-31T04:33:25;93198.78;;;16.14;93.58
12471;BME280;36499;46.484;13.832;2023-07-31T04:35:53;93205.88;;;16.13;93.32
12471;BME280;36499;46.484;13.832;2023-07-31T04:38:21;93199.84;;;16.13;93.17
12471;BME280;36499;46.484;13.832;2023-07-31T04:40:49;93200.59;;;16.13;94.30
12471;BME280;36499;46.484;13.832;2023-07-31T04:43:16;93199.84;;;16.13;94.42
12471;BME280;36499;46.484;13.832;2023-07-31T04:45:46;93191.16;;;16.12;94.82
12471;BME280;36499;46.484;13.832;2023-07-31T04:48:14;93201.72;;;16.17;94.53
12471;BME280;36499;46.484;13.832;2023-07-31T04:50:42;93202.28;;;16.19;94.28
12471;BME280;36499;46.484;13.832;2023-07-31T04:53:09;93196.75;;;16.21;94.07
12471;BME280;36499;46.484;13.832;2023-07-31T04:55:36;93198.53;;;16.15;94.10
12471;BME280;36499;46.484;13.832;2023-07-31T04:58:04;93196.44;;;16.17;93.92
12471;BME280;36499;46.484;13.832;2023-07-31T05:00:32;93201.41;;;16.14;93.40
12471;BME280;36499;46.484;13.832;2023-07-31T05:02:59;93201.41;;;16.14;93.11
12471;BME280;36499;46.484;13.832;2023-07-31T05:05:26;93199.56;;;16.14;92.92
12471;BME280;36499;46.484;13.832;2023-07-31T05:07:54;93209.88;;;16.16;93.03
12471;BME280;36499;46.484;13.832;2023-07-31T05:10:21;93208.56;;;16.18;93.31
12471;BME280;36499;46.484;13.832;2023-07-31T05:12:48;93209.91;;;16.21;94.02
12471;BME280;36499;46.484;13.832;2023-07-31T05:15:15;93205.44;;;16.21;94.27
12471;BME280;36499;46.484;13.832;2023-07-31T05:17:43;93205.34;;;16.33;93.83
12471;BME280;36499;46.484;13.832;2023-07-31T05:20:10;93211.78;;;16.42;93.94
12471;BME280;36499;46.484;13.832;2023-07-31T05:22:38;93199.47;;;16.48;94.15
12471;BME280;36499;46.484;13.832;2023-07-31T05:25:08;93194.59;;;16.56;93.97
12471;BME280;36499;46.484;13.832;2023-07-31T05:27:35;93197.09;;;16.68;93.65
12471;BME280;36499;46.484;13.832;2023-07-31T05:30:03;93197.16;;;16.73;93.62
12471;BME280;36499;46.484;13.832;2023-07-31T05:32:30;93189.88;;;16.80;93.46
12471;BME280;36499;46.484;13.832;2023-07-31T05:34:57;93191.50;;;16.86;92.74
12471;BME280;36499;46.484;13.832;2023-07-31T05:37:24;93194.41;;;16.90;92.82
12471;BME280;36499;46.484;13.832;2023-07-31T05:39:51;93198.44;;;16.97;92.39
12471;BME280;36499;46.484;13.832;2023-07-31T05:42:20;93191.16;;;17.04;92.34
12471;BME280;36499;46.484;13.832;2023-07-31T05:44:47;93197.63;;;17.18;92.53
12471;BME280;36499;46.484;13.832;2023-07-31T05:47:14;93192.19;;;17.30;92.67
12471;BME280;36499;46.484;13.832;2023-07-31T05:49:41;93187.75;;;17.36;92.25
12471;BME280;36499;46.484;13.832;2023-07-31T05:52:08;93185.94;;;17.41;92.18
12471;BME280;36499;46.484;13.832;2023-07-31T05:54:35;93187.56;;;17.42;91.42
12471;BME280;36499;46.484;13.832;2023-07-31T05:57:03;93188.13;;;17.49;91.16
12471;BME280;36499;46.484;13.832;2023-07-31T05:59:31;93180.88;;;17.61;91.63
12471;BME280;36499;46.484;13.832;2023-07-31T06:01:58;93184.09;;;17.68;90.23
12471;BME280;36499;46.484;13.832;2023-07-31T06:04:26;93185.69;;;17.74;88.45
12471;BME280;36499;46.484;13.832;2023-07-31T06:06:53;93176.53;;;17.82;88.89
12471;BME280;36499;46.484;13.832;2023-07-31T06:09:20;93178.44;;;17.97;89.58
12471;BME280;36499;46.484;13.832;2023-07-31T06:11:47;93174.59;;;18.14;89.65
12471;BME280;36499;46.484;13.832;2023-07-31T06:14:14;93170.69;;;18.27;87.88
12471;BME280;36499;46.484;13.832;2023-07-31T06:16:43;93172.59;;;18.37;85.94
12471;BME280;36499;46.484;13.832;2023-07-31T06:19:11;93171.38;;;18.54;87.38
12471;BME280;36499;46.484;13.832;2023-07-31T06:21:38;93174.84;;;18.70;83.97
12471;BME280;36499;46.484;13.832;2023-07-31T06:24:08;93187.06;;;18.86;84.45
12471;BME280;36499;46.484;13.832;2023-07-31T06:26:35;93183.09;;;18.99;83.37
12471;BME280;36499;46.484;13.832;2023-07-31T06:29:02;93179.72;;;19.08;81.68
12471;BME280;36499;46.484;13.832;2023-07-31T06:31:29;93186.84;;;19.13;80.16
12471;BME280;36499;46.484;13.832;2023-07-31T06:33:57;93187.94;;;19.27;80.52
12471;BME280;36499;46.484;13.832;2023-07-31T06:36:24;93184.00;;;19.45;81.65
12471;BME280;36499;46.484;13.832;2023-07-31T06:38:52;93177.91;;;19.64;81.48
12471;BME280;36499;46.484;13.832;2023-07-31T06:41:19;93178.16;;;19.83;81.42
12471;BME280;36499;46.484;13.832;2023-07-31T06:43:46;93168.84;;;20.06;80.84
12471;BME280;36499;46.484;13.832;2023-07-31T06:46:13;93181.25;;;20.26;80.02
12471;BME280;36499;46.484;13.832;2023-07-31T06:48:40;93172.25;;;20.37;78.24
12471;BME280;36499;46.484;13.832;2023-07-31T06:51:08;93179.16;;;20.23;76.12
12471;BME280;36499;46.484;13.832;2023-07-31T06:53:35;93173.03;;;20.42;77.15
12471;BME280;36499;46.484;13.832;2023-07-31T06:56:03;93166.84;;;20.62;78.40
12471;BME280;36499;46.484;13.832;2023-07-31T06:58:30;93171.56;;;20.75;74.99
12471;BME280;36499;46.484;13.832;2023-07-31T07:00:57;93167.25;;;20.89;73.42
12471;BME280;36499;46.484;13.832;2023-07-31T07:03:24;93165.28;;;21.10;73.81
12471;BME280;36499;46.484;13.832;2023-07-31T07:05:52;93164.31;;;20.96;71.02
12471;BME280;36499;46.484;13.832;2023-07-31T07:08:20;93164.69;;;21.23;71.15
12471;BME280;36499;46.484;13.832;2023-07-31T07:10:47;93163.81;;;21.38;69.26
12471;BME280;36499;46.484;13.832;2023-07-31T07:13:14;93151.97;;;21.54;70.18
12471;BME280;36499;46.484;13.832;2023-07-31T07:15:41;93151.81;;;21.74;69.82
12471;BME280;36499;46.484;13.832;2023-07-31T07:18:08;93151.69;;;21.89;71.44
12471;BME280;36499;46.484;13.832;2023-07-31T07:20:36;93144.97;;;22.02;69.65
12471;BME280;36499;46.484;13.832;2023-07-31T07:23:03;93147.97;;;22.19;68.66
12471;BME280;36499;46.484;13.832;2023-07-31T07:25:31;93149.66;;;22.34;70.00
12471;BME280;36499;46.484;13.832;2023-07-31T07:27:58;93142.81;;;22.52;68.98
12471;BME280;36499;46.484;13.832;2023-07-31T07:30:25;93140.25;;;22.65;67.79
12471;BME280;36499;46.484;13.832;2023-07-31T07:32:52;93141.81;;;22.71;67.23
12471;BME280;36499;46.484;13.832;2023-07-31T07:35:19;93140.81;;;22.86;66.27
12471;BME280;36499;46.484;13.832;2023-07-31T07:37:48;93141.53;;;22.91;65.66
12471;BME280;36499;46.484;13.832;2023-07-31T07:40:16;93140.53;;;23.06;66.02
12471;BME280;36499;46.484;13.832;2023-07-31T07:42:45;93128.75;;;23.12;65.60
12471;BME280;36499;46.484;13.832;2023-07-31T07:45:12;93125.78;;;23.14;64.33
12471;BME280;36499;46.484;13.832;2023-07-31T07:47:41;93121.34;;;23.28;63.64
12471;BME280;36499;46.484;13.832;2023-07-31T07:50:09;93126.97;;;23.40;64.14
12471;BME280;36499;46.484;13.832;2023-07-31T07:52:36;93117.91;;;23.41;64.30
12471;BME280;36499;46.484;13.832;2023-07-31T07:55:04;93123.69;;;23.48;62.51
12471;BME280;36499;46.484;13.832;2023-07-31T07:57:31;93127.88;;;23.54;63.81
12471;BME280;36499;46.484;13.832;2023-07-31T08:00:00;93124.44;;;23.67;62.48
12471;BME280;36499;46.484;13.832;2023-07-31T08:02:27;93127.06;;;23.86;63.81
12471;BME280;36499;46.484;13.832;2023-07-31T08:04:54;93125.31;;;23.95;62.38
12471;BME280;36499;46.484;13.832;2023-07-31T08:07:21;93114.38;;;24.10;63.32
12471;BME280;36499;46.484;13.832;2023-07-31T08:09:48;93119.97;;;24.09;62.15
12471;BME280;36499;46.484;13.832;2023-07-31T08:12:15;93118.84;;;24.15;60.27
12471;BME280;36499;46.484;13.832;2023-07-31T08:14:42;93115.41;;;24.14;60.33
12471;BME280;36499;46.484;13.832;2023-07-31T08:17:10;93115.13;;;24.16;58.57
12471;BME280;36499;46.484;13.832;2023-07-31T08:19:37;93114.91;;;24.26;58.45
12471;BME280;36499;46.484;13.832;2023-07-31T08:22:05;93116.78;;;24.39;58.83
12471;BME280;36499;46.484;13.832;2023-07-31T08:24:32;93112.53;;;24.38;57.05
12471;BME280;36499;46.484;13.832;2023-07-31T08:26:59;93116.09;;;24.33;57.34
12471;BME280;36499;46.484;13.832;2023-07-31T08:29:26;93119.03;;;24.32;57.33
12471;BME280;36499;46.484;13.832;2023-07-31T08:31:53;93113.91;;;24.49;58.67
12471;BME280;36499;46.484;13.832;2023-07-31T08:34:21;93112.91;;;24.72;58.19
12471;BME280;36499;46.484;13.832;2023-07-31T08:36:48;93109.34;;;24.63;58.37
12471;BME280;36499;46.484;13.832;2023-07-31T08:39:15;93108.47;;;24.54;57.76
12471;BME280;36499;46.484;13.832;2023-07-31T08:41:43;93103.13;;;24.54;57.78
12471;BME280;36499;46.484;13.832;2023-07-31T08:44:12;93109.13;;;24.73;58.88
12471;BME280;36499;46.484;13.832;2023-07-31T08:46:41;93096.69;;;24.96;57.95
12471;BME280;36499;46.484;13.832;2023-07-31T08:49:10;93095.16;;;25.04;55.99
12471;BME280;36499;46.484;13.832;2023-07-31T08:51:41;93103.75;;;25.14;56.88
12471;BME280;36499;46.484;13.832;2023-07-31T08:54:08;93095.50;;;25.24;57.15
12471;BME280;36499;46.484;13.832;2023-07-31T08:56:36;93101.94;;;25.23;56.96
12471;BME280;36499;46.484;13.832;2023-07-31T08:59:04;93108.31;;;25.14;56.44
12471;BME280;36499;46.484;13.832;2023-07-31T09:01:39;93104.78;;;25.27;56.61
12471;BME280;36499;46.484;13.832;2023-07-31T09:04:12;93104.13;;;25.21;56.45
12471;BME280;36499;46.484;13.832;2023-07-31T09:06:43;93107.69;;;25.17;56.33
12471;BME280;36499;46.484;13.832;2023-07-31T09:09:12;93103.50;;;24.89;54.58
12471;BME280;36499;46.484;13.832;2023-07-31T09:11:39;93103.78;;;25.01;55.50
12471;BME280;36499;46.484;13.832;2023-07-31T09:14:10;93098.28;;;24.83;55.45
12471;BME280;36499;46.484;13.832;2023-07-31T09:16:52;93098.69;;;24.91;54.86
12471;BME280;36499;46.484;13.832;2023-07-31T09:19:26;93093.34;;;24.91;56.56
12471;BME280;36499;46.484;13.832;2023-07-31T09:21:55;93089.72;;;25.09;53.48
12471;BME280;36499;46.484;13.832;2023-07-31T09:24:26;93087.88;;;25.31;54.32
12471;BME280;36499;46.484;13.832;2023-07-31T09:26:55;93084.28;;;25.36;54.94
12471;BME280;36499;46.484;13.832;2023-07-31T09:29:23;93069.78;;;25.28;54.50
12471;BME280;36499;46.484;13.832;2023-07-31T09:31:50;93080.22;;;25.39;54.01
12471;BME280;36499;46.484;13.832;2023-07-31T09:34:18;93068.75;;;25.16;52.90
12471;BME280;36499;46.484;13.832;2023-07-31T09:36:47;93081.25;;;25.07;54.09
12471;BME280;36499;46.484;13.832;2023-07-31T09:39:17;93065.59;;;25.14;55.03
12471;BME280;36499;46.484;13.832;2023-07-31T09:41:54;93079.34;;;25.07;55.44
12471;BME280;36499;46.484;13.832;2023-07-31T09:44:37;93069.84;;;25.15;55.41
12471;BME280;36499;46.484;13.832;2023-07-31T09:47:05;93080.63;;;25.10;54.94
12471;BME280;36499;46.484;13.832;2023-07-31T09:49:32;93073.44;;;25.33;55.68
12471;BME280;36499;46.484;13.832;2023-07-31T09:51:59;93071.47;;;25.60;55.25
12471;BME280;36499;46.484;13.832;2023-07-31T09:54:29;93064.28;;;25.69;54.58
12471;BME280;36499;46.484;13.832;2023-07-31T09:56:58;93063.22;;;25.79;53.14
12471;BME280;36499;46.484;13.832;2023-07-31T09:59:26;93057.75;;;25.84;53.23
12471;BME280;36499;46.484;13.832;2023-07-31T10:01:56;93062.66;;;25.60;55.32
12471;BME280;36499;46.484;13.832;2023-07-31T10:04:27;93052.50;;;25.70;54.14
12471;BME280;36499;46.484;13.832;2023-07-31T10:06:55;93059.72;;;26.01;55.71
12471;BME280;36499;46.484;13.832;2023-07-31T10:09:25;93055.00;;;26.06;53.33
12471;BME280;36499;46.484;13.832;2023-07-31T10:12:00;93051.41;;;26.11;54.83
12471;BME280;36499;46.484;13.832;2023-07-31T10:14:32;93059.31;;;26.16;53.88
12471;BME280;36499;46.484;13.832;2023-07-31T10:17:01;93055.78;;;26.38;52.54
12471;BME280;36499;46.484;13.832;2023-07-31T10:19:30;93043.22;;;26.47;54.18
12471;BME280;36499;46.484;13.832;2023-07-31T10:21:59;93040.91;;;26.62;53.71
12471;BME280;36499;46.484;13.832;2023-07-31T10:24:28;93038.81;;;26.42;51.66
12471;BME280;36499;46.484;13.832;2023-07-31T10:27:00;93035.72;;;26.18;53.41
12471;BME280;36499;46.484;13.832;2023-07-31T10:29:29;93034.53;;;25.93;52.26
12471;BME280;36499;46.484;13.832;2023-07-31T10:31:58;93036.16;;;25.72;52.24
12471;BME280;36499;46.484;13.832;2023-07-31T10:34:26;93037.75;;;25.51;53.14
12471;BME280;36499;46.484;13.832;2023-07-31T10:37:23;93038.63;;;25.38;54.28
12471;BME280;36499;46.484;13.832;2023-07-31T10:40:01;93043.75;;;25.34;53.25
12471;BME280;36499;46.484;13.832;2023-07-31T10:42:35;93045.44;;;24.86;55.36
12471;BME280;36499;46.484;13.832;2023-07-31T10:45:06;93027.28;;;25.10;54.18
12471;BME280;36499;46.484;13.832;2023-07-31T10:47:37;93034.00;;;25.29;55.12
12471;BME280;36499;46.484;13.832;2023-07-31T10:50:19;93039.81;;;25.09;54.96
12471;BME280;36499;46.484;13.832;2023-07-31T10:52:48;93019.63;;;24.95;54.96
12471;BME280;36499;46.484;13.832;2023-07-31T10:59:01;93042.56;;;24.96;56.09
12471;BME280;36499;46.484;13.832;2023-07-31T11:01:50;93037.94;;;25.10;55.95
12471;BME280;36499;46.484;13.832;2023-07-31T11:04:22;93039.38;;;25.38;54.97
12471;BME280;36499;46.484;13.832;2023-07-31T11:07:01;93038.28;;;25.39;54.86
12471;BME280;36499;46.484;13.832;2023-07-31T11:09:40;93050.47;;;25.76;54.96
12471;BME280;36499;46.484;13.832;2023-07-31T11:12:07;93045.09;;;26.07;54.34
12471;BME280;36499;46.484;13.832;2023-07-31T11:14:37;93035.06;;;26.12;54.35
12471;BME280;36499;46.484;13.832;2023-07-31T11:17:06;93041.47;;;25.94;53.69
12471;BME280;36499;46.484;13.832;2023-07-31T11:19:33;93023.56;;;26.03;52.58
12471;BME280;36499;46.484;13.832;2023-07-31T11:22:01;93023.47;;;26.17;53.23
12471;BME280;36499;46.484;13.832;2023-07-31T11:24:28;93014.72;;;26.34;54.93
12471;BME280;36499;46.484;13.832;2023-07-31T11:26:55;93016.66;;;26.50;52.72
12471;BME280;36499;46.484;13.832;2023-07-31T11:29:27;93014.28;;;26.57;53.05
12471;BME280;36499;46.484;13.832;2023-07-31T11:31:56;93017.81;;;26.92;53.71
12471;BME280;36499;46.484;13.832;2023-07-31T11:34:23;93028.81;;;26.91;52.00
12471;BME280;36499;46.484;13.832;2023-07-31T11:36:54;93003.50;;;26.88;50.55
12471;BME280;36499;46.484;13.832;2023-07-31T11:39:21;93012.56;;;26.61;51.55
12471;BME280;36499;46.484;13.832;2023-07-31T11:41:48;93009.25;;;26.64;53.13
12471;BME280;36499;46.484;13.832;2023-07-31T11:44:15;93008.16;;;26.65;52.42
12471;BME280;36499;46.484;13.832;2023-07-31T11:46:43;93004.09;;;26.77;53.05
12471;BME280;36499;46.484;13.832;2023-07-31T11:49:11;92996.06;;;27.02;52.23
12471;BME280;36499;46.484;13.832;2023-07-31T11:51:39;93000.94;;;27.09;52.24
12471;BME280;36499;46.484;13.832;2023-07-31T11:54:06;92995.09;;;27.33;51.44
12471;BME280;36499;46.484;13.832;2023-07-31T11:56:33;92988.34;;;27.35;51.65
12471;BME280;36499;46.484;13.832;2023-07-31T11:59:02;92982.50;;;27.50;50.65
12471;BME280;36499;46.484;13.832;2023-07-31T12:01:32;92985.75;;;27.64;51.15
12471;BME280;36499;46.484;13.832;2023-07-31T12:03:59;92983.06;;;27.73;50.61
12471;BME280;36499;46.484;13.832;2023-07-31T12:06:34;92970.94;;;27.67;50.03
12471;BME280;36499;46.484;13.832;2023-07-31T12:09:03;92976.31;;;27.58;50.63
12471;BME280;36499;46.484;13.832;2023-07-31T12:11:31;92983.78;;;27.27;51.19
12471;BME280;36499;46.484;13.832;2023-07-31T12:13:58;92971.66;;;27.21;51.61
12471;BME280;36499;46.484;13.832;2023-07-31T12:16:27;92965.63;;;27.50;51.08
12471;BME280;36499;46.484;13.832;2023-07-31T12:18:54;92963.88;;;27.45;49.82
12471;BME280;36499;46.484;13.832;2023-07-31T12:21:22;92964.38;;;27.39;50.69
12471;BME280;36499;46.484;13.832;2023-07-31T12:23:51;92958.69;;;27.40;49.71
12471;BME280;36499;46.484;13.832;2023-07-31T12:26:19;92964.56;;;27.25;52.02
12471;BME280;36499;46.484;13.832;2023-07-31T12:28:50;92953.34;;;27.40;51.63
12471;BME280;36499;46.484;13.832;2023-07-31T12:31:19;92947.69;;;27.25;51.56
12471;BME280;36499;46.484;13.832;2023-07-31T12:33:49;92944.53;;;27.48;49.62
12471;BME280;36499;46.484;13.832;2023-07-31T12:36:20;92948.28;;;27.47;50.44
12471;BME280;36499;46.484;13.832;2023-07-31T12:38:47;92941.69;;;27.91;51.07
12471;BME280;36499;46.484;13.832;2023-07-31T12:41:17;92943.66;;;28.03;52.07
12471;BME280;36499;46.484;13.832;2023-07-31T12:43:45;92935.16;;;28.01;49.61
12471;BME280;36499;46.484;13.832;2023-07-31T12:46:12;92936.53;;;27.78;49.38
12471;BME280;36499;46.484;13.832;2023-07-31T12:48:40;92926.25;;;27.50;50.23
12471;BME280;36499;46.484;13.832;2023-07-31T12:51:07;92932.72;;;27.49;51.58
12471;BME280;36499;46.484;13.832;2023-07-31T12:53:35;92934.00;;;27.35;50.94
12471;BME280;36499;46.484;13.832;2023-07-31T12:56:02;92927.19;;;27.54;50.67
12471;BME280;36499;46.484;13.832;2023-07-31T12:58:31;92930.19;;;27.53;49.91
12471;BME280;36499;46.484;13.832;2023-07-31T13:00:58;92924.00;;;27.61;51.26